Time;durP1;ratioP1;P1;durP2;ratioP2;P2;SDS_P1;SDS_P2;PMS_P1;PMS_P2;Temp;Humidity;BMP_temperature;BMP_pressure;BME280_temperature;BME280_humidity;BME280_pressure;Samples;Min_cycle;Max_cycle;Signal;HPM_P1;HPM_P2
2022/09/25 00:01:33;;;;;;;1.50;1.00;;;14.50;98.20;;;;;;5031319;28;20610;-81
2022/09/25 00:04:00;;;;;;;1.50;1.00;;;14.50;98.20;;;;;;5032081;28;20977;-81
2022/09/25 00:06:28;;;;;;;1.50;1.00;;;14.50;98.20;;;;;;5040783;28;20539;-81
2022/09/25 00:08:58;;;;;;;1.50;1.00;;;14.50;98.20;;;;;;5048629;28;20549;-81
2022/09/25 00:11:27;;;;;;;1.50;1.00;;;14.50;98.20;;;;;;5041526;28;20484;-81
2022/09/25 00:13:54;;;;;;;1.50;0.90;;;14.50;98.20;;;;;;5052683;28;20473;-81
2022/09/25 00:16:23;;;;;;;1.50;1.10;;;14.60;98.20;;;;;;5041438;28;20477;-81
2022/09/25 00:21:38;;;;;;;1.50;1.00;;;14.50;98.20;;;;;;5032253;28;21009;-81
2022/09/25 00:24:07;;;;;;;1.47;1.00;;;14.50;98.20;;;;;;5042371;28;20993;-80
2022/09/25 00:26:36;;;;;;;1.50;0.93;;;14.50;98.20;;;;;;5040765;28;20942;-81
2022/09/25 00:29:05;;;;;;;1.50;1.00;;;14.50;98.20;;;;;;5052250;28;20489;-81
2022/09/25 00:31:32;;;;;;;1.50;0.93;;;14.50;98.20;;;;;;5034877;28;21030;-81
2022/09/25 00:34:03;;;;;;;1.50;1.00;;;14.50;98.20;;;;;;5042607;28;20466;-81
2022/09/25 00:36:31;;;;;;;1.50;1.00;;;14.50;98.20;;;;;;5030261;28;20480;-82
2022/09/25 00:38:58;;;;;;;1.50;1.00;;;14.50;98.20;;;;;;5040066;28;20466;-81
2022/09/25 00:41:27;;;;;;;1.50;1.00;;;14.50;98.20;;;;;;5045125;28;20501;-81
2022/09/25 00:43:55;;;;;;;1.50;1.00;;;14.50;98.20;;;;;;5052655;28;20487;-81
2022/09/25 00:46:26;;;;;;;1.50;1.00;;;14.50;98.20;;;;;;5035792;28;20502;-80
2022/09/25 00:48:57;;;;;;;1.50;1.00;;;14.50;98.20;;;;;;5040441;28;20470;-81
2022/09/25 00:51:30;;;;;;;1.50;1.00;;;14.50;98.20;;;;;;5038841;28;21005;-81
2022/09/25 00:54:02;;;;;;;1.50;1.00;;;14.50;98.20;;;;;;5046395;28;20493;-81
2022/09/25 00:56:34;;;;;;;1.50;1.10;;;14.50;98.20;;;;;;5044016;28;20784;-82
2022/09/25 00:59:02;;;;;;;1.50;0.90;;;14.50;98.20;;;;;;5051610;28;20466;-81
2022/09/25 01:01:29;;;;;;;1.50;1.00;;;14.50;98.20;;;;;;5038538;28;20488;-82
2022/09/25 01:03:57;;;;;;;1.50;1.10;;;14.50;98.20;;;;;;5046891;28;20516;-81
2022/09/25 01:06:27;;;;;;;1.50;1.00;;;14.50;98.20;;;;;;5034621;28;20502;-81
2022/09/25 01:08:55;;;;;;;1.50;1.00;;;14.50;98.20;;;;;;5039529;28;20472;-81
2022/09/25 01:11:22;;;;;;;1.50;1.00;;;14.50;98.20;;;;;;5042143;28;20505;-82
2022/09/25 01:13:52;;;;;;;1.50;1.00;;;14.50;98.20;;;;;;5051509;28;20516;-82
2022/09/25 01:16:27;;;;;;;1.50;1.00;;;14.50;98.20;;;;;;5040199;28;20474;-81
2022/09/25 01:19:05;;;;;;;1.43;0.90;;;14.50;98.20;;;;;;5032449;28;20742;-82
2022/09/25 01:21:39;;;;;;;1.50;1.00;;;14.50;98.20;;;;;;5034999;28;20474;-80
2022/09/25 01:24:34;;;;;;;1.50;1.00;;;14.50;98.20;;;;;;5036722;28;20500;-81
2022/09/25 01:27:28;;;;;;;1.50;0.93;;;14.50;98.20;;;;;;5040800;28;20543;-81
2022/09/25 01:30:05;;;;;;;1.50;1.00;;;14.50;98.20;;;;;;5049196;28;20534;-81
2022/09/25 01:32:38;;;;;;;1.50;0.90;;;14.40;98.20;;;;;;5030817;28;21019;-80
2022/09/25 01:35:11;;;;;;;1.50;1.00;;;14.40;98.20;;;;;;5048825;28;20482;-81
2022/09/25 01:37:44;;;;;;;1.50;1.00;;;14.40;98.20;;;;;;5022864;28;20483;-81
2022/09/25 01:40:16;;;;;;;1.50;1.00;;;14.40;98.20;;;;;;5049557;28;20872;-80
2022/09/25 01:42:50;;;;;;;1.50;1.00;;;14.40;98.20;;;;;;5019938;28;20543;-80
2022/09/25 01:45:24;;;;;;;1.60;1.23;;;14.40;98.20;;;;;;5054111;28;20515;-81
2022/09/25 01:47:53;;;;;;;1.50;1.10;;;14.40;98.20;;;;;;5043568;28;20486;-81
2022/09/25 01:50:25;;;;;;;1.50;0.93;;;14.40;98.20;;;;;;5049042;28;20510;-81
2022/09/25 01:52:56;;;;;;;1.50;1.00;;;14.40;98.20;;;;;;5015531;28;20493;-80
2022/09/25 01:55:31;;;;;;;1.50;1.00;;;14.40;98.20;;;;;;5039924;28;20466;-81
2022/09/25 01:58:06;;;;;;;1.50;1.00;;;14.30;98.20;;;;;;5035771;28;20564;-80
2022/09/25 02:00:39;;;;;;;1.50;1.10;;;14.30;98.20;;;;;;5043664;28;20553;-80
2022/09/25 02:03:10;;;;;;;1.50;1.00;;;14.30;98.20;;;;;;5031868;28;20561;-80
2022/09/25 02:05:43;;;;;;;1.50;1.00;;;14.30;98.20;;;;;;5045538;28;20553;-81
2022/09/25 02:08:14;;;;;;;1.50;1.10;;;14.30;98.20;;;;;;5038123;28;20499;-79
2022/09/25 02:10:46;;;;;;;1.50;1.00;;;14.30;98.20;;;;;;5050039;28;20517;-80
2022/09/25 02:13:17;;;;;;;1.50;1.00;;;14.20;98.20;;;;;;5021611;28;21042;-80
2022/09/25 02:15:50;;;;;;;1.50;1.00;;;14.20;98.20;;;;;;5042373;28;20463;-80
2022/09/25 02:21:13;;;;;;;1.50;1.00;;;14.20;98.20;;;;;;5033749;28;20748;-81
2022/09/25 02:23:50;;;;;;;1.50;1.00;;;14.20;98.20;;;;;;5035076;28;20462;-81
2022/09/25 02:26:24;;;;;;;1.50;0.90;;;14.20;98.20;;;;;;5032704;28;20470;-81
2022/09/25 02:28:53;;;;;;;1.50;1.00;;;14.20;98.20;;;;;;5028752;28;20458;-80
2022/09/25 02:31:25;;;;;;;1.50;1.00;;;14.20;98.20;;;;;;5030200;28;20478;-80
2022/09/25 02:33:52;;;;;;;1.50;1.00;;;14.20;98.20;;;;;;5034554;28;20463;-81
2022/09/25 02:36:20;;;;;;;1.50;1.00;;;14.20;98.20;;;;;;5038269;28;20479;-80
2022/09/25 02:38:49;;;;;;;1.50;1.00;;;14.20;98.20;;;;;;5048665;28;20625;-81
2022/09/25 02:41:24;;;;;;;1.50;1.00;;;14.20;98.20;;;;;;5028936;28;20489;-80
2022/09/25 02:44:00;;;;;;;1.50;1.00;;;14.10;98.20;;;;;;5036102;28;20966;-80
2022/09/25 02:46:35;;;;;;;1.50;1.00;;;14.10;98.20;;;;;;5037748;28;20509;-81
2022/09/25 02:49:11;;;;;;;1.50;1.00;;;14.10;98.20;;;;;;5049845;28;20488;-81
2022/09/25 02:51:46;;;;;;;1.50;1.00;;;14.10;98.20;;;;;;5038983;28;20527;-79
2022/09/25 02:54:19;;;;;;;1.50;1.00;;;14.10;98.20;;;;;;5047970;28;20461;-80
2022/09/25 02:56:53;;;;;;;1.50;1.00;;;14.00;98.20;;;;;;5031340;28;20490;-80
2022/09/25 02:59:25;;;;;;;1.50;1.00;;;14.00;98.20;;;;;;5048342;28;20517;-81
2022/09/25 03:01:55;;;;;;;1.77;1.47;;;14.00;98.20;;;;;;5033663;28;20482;-81
2022/09/25 03:04:25;;;;;;;1.50;1.00;;;14.00;98.20;;;;;;5040657;28;20463;-80
2022/09/25 03:06:52;;;;;;;1.50;1.10;;;14.00;98.20;;;;;;5027518;28;20565;-81
2022/09/25 03:09:20;;;;;;;1.50;1.00;;;14.00;98.20;;;;;;5041548;28;20481;-81
2022/09/25 03:11:47;;;;;;;1.50;1.00;;;14.00;98.20;;;;;;5044707;28;20588;-81
2022/09/25 03:14:14;;;;;;;1.50;1.00;;;14.00;98.20;;;;;;5051531;28;20505;-81
2022/09/25 03:16:46;;;;;;;1.50;1.00;;;14.00;98.20;;;;;;5041733;28;20553;-81
2022/09/25 03:19:15;;;;;;;1.50;1.00;;;14.00;98.20;;;;;;5049419;28;20462;-81
2022/09/25 03:21:42;;;;;;;1.50;1.00;;;13.90;98.20;;;;;;5038476;28;20573;-80
2022/09/25 03:24:09;;;;;;;1.50;1.00;;;13.90;98.20;;;;;;5044212;28;20542;-81
2022/09/25 03:26:36;;;;;;;1.50;1.00;;;13.90;98.20;;;;;;5029578;28;20549;-80
2022/09/25 03:29:04;;;;;;;1.50;1.00;;;13.80;98.20;;;;;;5037248;28;20466;-81
2022/09/25 03:31:31;;;;;;;1.50;1.00;;;13.80;98.20;;;;;;5030231;28;20482;-79
2022/09/25 03:33:58;;;;;;;1.60;1.10;;;13.80;98.20;;;;;;5038790;28;20469;-80
2022/09/25 03:36:28;;;;;;;1.50;1.00;;;13.80;98.20;;;;;;5031411;28;20557;-81
2022/09/25 03:38:57;;;;;;;1.50;1.00;;;13.80;98.20;;;;;;5036351;28;20557;-82
2022/09/25 03:41:27;;;;;;;1.50;1.10;;;13.80;98.20;;;;;;5041841;28;20496;-80
2022/09/25 03:43:55;;;;;;;1.50;1.00;;;13.80;98.20;;;;;;5049531;28;21038;-81
2022/09/25 03:46:24;;;;;;;1.50;1.00;;;13.80;98.20;;;;;;5040617;28;20526;-81
2022/09/25 03:48:52;;;;;;;1.50;1.00;;;13.80;98.20;;;;;;5054312;28;20485;-80
2022/09/25 03:51:19;;;;;;;1.50;1.10;;;13.80;98.20;;;;;;5045031;28;20473;-81
2022/09/25 03:53:48;;;;;;;1.50;1.00;;;13.70;98.20;;;;;;5053098;28;20509;-80
2022/09/25 03:56:19;;;;;;;1.50;1.00;;;13.70;98.20;;;;;;5033749;28;20562;-81
2022/09/25 03:58:46;;;;;;;1.50;1.00;;;13.70;98.20;;;;;;5029460;28;20474;-80
2022/09/25 04:01:14;;;;;;;1.50;1.00;;;13.70;98.20;;;;;;5029714;28;20490;-81
2022/09/25 04:03:46;;;;;;;1.50;1.00;;;13.70;98.20;;;;;;5045584;28;20463;-81
2022/09/25 04:06:17;;;;;;;1.50;1.00;;;13.70;98.20;;;;;;5030222;28;20558;-81
2022/09/25 04:08:45;;;;;;;1.50;1.00;;;13.70;98.20;;;;;;5036534;28;20459;-81
2022/09/25 04:11:13;;;;;;;1.50;1.00;;;13.70;98.20;;;;;;5037129;28;20475;-80
2022/09/25 04:13:42;;;;;;;1.50;0.90;;;13.70;98.20;;;;;;5037459;28;20497;-80
2022/09/25 04:16:10;;;;;;;1.60;1.20;;;13.70;98.20;;;;;;5035996;28;20477;-80
2022/09/25 04:18:37;;;;;;;1.50;1.00;;;13.70;98.20;;;;;;5047898;28;20669;-81
2022/09/25 04:21:07;;;;;;;1.50;1.00;;;13.70;98.20;;;;;;5035955;28;20481;-80
2022/09/25 04:23:35;;;;;;;1.50;1.00;;;13.60;98.20;;;;;;5036365;28;20992;-80
2022/09/25 04:26:02;;;;;;;1.50;1.00;;;13.60;98.20;;;;;;5038925;28;20466;-79
2022/09/25 04:28:31;;;;;;;1.50;1.00;;;13.60;98.20;;;;;;5046121;28;20465;-80
2022/09/25 04:30:58;;;;;;;1.50;1.00;;;13.60;98.20;;;;;;5035274;28;20506;-80
2022/09/25 04:36:10;;;;;;;1.50;1.00;;;13.60;98.20;;;;;;5031664;28;21013;-80
2022/09/25 04:38:37;;;;;;;1.50;1.00;;;13.60;98.20;;;;;;5037832;28;20512;-81
2022/09/25 04:41:05;;;;;;;1.50;1.00;;;13.60;98.20;;;;;;5039250;28;20528;-81
2022/09/25 04:43:34;;;;;;;1.50;0.97;;;13.50;98.20;;;;;;5050134;28;20489;-80
2022/09/25 04:46:02;;;;;;;1.50;1.00;;;13.50;98.20;;;;;;5038243;28;20466;-80
2022/09/25 04:48:29;;;;;;;1.50;1.00;;;13.50;98.20;;;;;;5036214;28;20458;-80
2022/09/25 04:50:57;;;;;;;1.50;1.00;;;13.50;98.20;;;;;;5037167;28;21237;-81
2022/09/25 04:53:25;;;;;;;1.50;1.00;;;13.50;98.20;;;;;;5036896;28;20460;-80
2022/09/25 04:55:53;;;;;;;1.50;1.00;;;13.50;98.20;;;;;;5038832;28;20469;-80
2022/09/25 04:58:20;;;;;;;1.50;1.00;;;13.50;98.20;;;;;;5040565;28;20510;-81
2022/09/25 05:00:49;;;;;;;1.50;1.00;;;13.50;98.20;;;;;;5042108;28;20540;-81
2022/09/25 05:03:16;;;;;;;1.53;1.00;;;13.40;98.20;;;;;;5044610;28;20516;-80
2022/09/25 05:05:43;;;;;;;1.50;1.00;;;13.30;98.20;;;;;;5047357;28;20548;-80
2022/09/25 05:08:11;;;;;;;1.50;1.00;;;13.30;98.20;;;;;;5025601;28;21129;-80
2022/09/25 05:10:39;;;;;;;1.50;1.00;;;13.30;98.20;;;;;;5050344;28;20482;-80
2022/09/25 05:13:08;;;;;;;1.50;1.00;;;13.20;98.20;;;;;;5039174;28;20858;-81
2022/09/25 05:15:36;;;;;;;1.57;1.10;;;13.20;98.20;;;;;;5049575;28;20466;-80
2022/09/25 05:18:07;;;;;;;1.50;1.00;;;13.10;98.20;;;;;;5034125;28;20480;-80
2022/09/25 05:20:35;;;;;;;1.50;1.00;;;13.10;98.20;;;;;;5045573;28;20488;-80
2022/09/25 05:23:03;;;;;;;1.53;1.07;;;13.00;98.20;;;;;;5038474;28;20880;-79
2022/09/25 05:25:31;;;;;;;1.50;1.00;;;13.00;98.20;;;;;;5048316;28;20462;-80
2022/09/25 05:28:00;;;;;;;1.50;1.00;;;12.90;98.20;;;;;;5038476;28;20475;-81
2022/09/25 05:30:29;;;;;;;1.50;1.00;;;12.90;98.20;;;;;;5046233;28;20483;-80
2022/09/25 05:32:58;;;;;;;1.50;1.10;;;12.90;98.20;;;;;;5019596;28;20518;-80
2022/09/25 05:35:28;;;;;;;1.50;1.03;;;12.90;98.20;;;;;;5046948;28;20885;-80
2022/09/25 05:37:56;;;;;;;1.50;1.00;;;12.90;98.20;;;;;;5038916;28;20526;-81
2022/09/25 05:40:24;;;;;;;1.50;1.00;;;12.90;98.20;;;;;;5050275;28;20986;-80
2022/09/25 05:42:52;;;;;;;1.50;1.00;;;12.90;98.20;;;;;;5022130;28;20483;-81
2022/09/25 05:45:22;;;;;;;1.50;1.00;;;12.80;98.20;;;;;;5048945;28;20509;-81
2022/09/25 05:47:49;;;;;;;1.53;1.10;;;12.80;98.20;;;;;;5022195;28;20490;-81
2022/09/25 05:50:17;;;;;;;1.53;1.10;;;12.80;98.20;;;;;;5046625;28;20490;-80
2022/09/25 05:52:54;;;;;;;1.50;1.07;;;12.70;98.20;;;;;;5035737;28;20520;-81
2022/09/25 05:55:22;;;;;;;1.50;1.00;;;12.70;98.20;;;;;;5048502;28;20483;-80
2022/09/25 05:57:49;;;;;;;1.50;1.10;;;12.70;98.20;;;;;;5038579;28;20889;-80
2022/09/25 06:00:16;;;;;;;1.50;1.10;;;12.70;98.20;;;;;;5049474;28;20653;-80
2022/09/25 06:02:43;;;;;;;1.50;1.10;;;12.60;98.20;;;;;;5013683;28;20490;-80
2022/09/25 06:05:11;;;;;;;1.50;1.10;;;12.60;98.20;;;;;;5046010;28;20553;-80
2022/09/25 06:07:38;;;;;;;1.50;1.00;;;12.60;98.20;;;;;;5037599;28;20512;-81
2022/09/25 06:10:08;;;;;;;1.50;1.10;;;12.50;98.20;;;;;;5048630;28;20493;-81
2022/09/25 06:12:35;;;;;;;1.60;1.13;;;12.50;98.20;;;;;;5038370;28;20536;-81
2022/09/25 06:15:02;;;;;;;1.50;1.00;;;12.50;98.20;;;;;;5050015;28;20558;-81
2022/09/25 06:17:29;;;;;;;1.57;1.20;;;12.50;98.20;;;;;;5039264;28;20595;-81
2022/09/25 06:19:57;;;;;;;1.50;1.10;;;12.50;98.20;;;;;;5049562;28;20497;-82
2022/09/25 06:22:24;;;;;;;1.50;1.10;;;12.50;98.20;;;;;;5024782;28;20987;-80
2022/09/25 06:24:51;;;;;;;1.50;1.10;;;12.50;98.20;;;;;;5044777;28;20478;-83
2022/09/25 06:27:20;;;;;;;1.50;1.10;;;12.50;98.20;;;;;;5036039;28;20467;-80
2022/09/25 06:29:47;;;;;;;1.50;1.00;;;12.50;98.20;;;;;;5049484;28;20995;-80
2022/09/25 06:32:15;;;;;;;1.50;1.10;;;12.50;98.20;;;;;;5033123;28;20474;-80
2022/09/25 06:34:43;;;;;;;1.50;1.10;;;12.50;98.20;;;;;;5047386;28;20454;-80
2022/09/25 06:37:10;;;;;;;1.50;1.10;;;12.40;98.20;;;;;;5024998;28;20487;-80
2022/09/25 06:39:37;;;;;;;1.50;1.00;;;12.40;98.20;;;;;;5043225;28;20482;-80
2022/09/25 06:42:05;;;;;;;1.50;1.10;;;12.50;98.20;;;;;;5024605;28;20493;-80
2022/09/25 06:44:34;;;;;;;1.50;1.00;;;12.50;98.20;;;;;;5041010;28;20693;-80
2022/09/25 06:47:01;;;;;;;1.50;1.10;;;12.60;98.20;;;;;;5033599;28;20908;-80
2022/09/25 06:49:28;;;;;;;1.50;1.00;;;12.80;98.20;;;;;;5043593;28;20482;-82
2022/09/25 06:51:56;;;;;;;1.50;1.03;;;12.90;98.20;;;;;;5041823;28;20838;-82
2022/09/25 06:54:23;;;;;;;1.50;1.10;;;13.10;98.20;;;;;;5050039;28;20466;-82
2022/09/25 06:56:50;;;;;;;1.50;1.00;;;13.30;98.20;;;;;;5030147;28;21073;-83
2022/09/25 06:59:18;;;;;;;1.50;1.00;;;13.40;98.20;;;;;;5045811;28;21022;-80
2022/09/25 07:01:46;;;;;;;1.50;1.00;;;13.60;98.20;;;;;;5038223;28;20486;-81
2022/09/25 07:04:12;;;;;;;1.50;1.00;;;13.80;98.20;;;;;;5049672;28;20943;-82
2022/09/25 07:06:40;;;;;;;1.50;1.00;;;14.00;98.20;;;;;;5039522;28;20500;-81
2022/09/25 07:09:07;;;;;;;1.50;1.00;;;14.10;98.20;;;;;;5049304;28;20552;-81
2022/09/25 07:11:35;;;;;;;1.50;1.00;;;14.30;98.20;;;;;;5040959;28;21013;-83
2022/09/25 07:14:02;;;;;;;1.50;0.90;;;14.50;98.20;;;;;;5050276;28;20545;-81
2022/09/25 07:16:31;;;;;;;1.50;1.00;;;14.60;98.20;;;;;;5030492;28;20983;-81
2022/09/25 07:19:02;;;;;;;1.50;1.00;;;14.90;98.20;;;;;;5038893;28;20573;-81
2022/09/25 07:21:30;;;;;;;1.50;1.03;;;15.10;98.20;;;;;;5030173;28;21081;-82
2022/09/25 07:23:58;;;;;;;1.50;1.00;;;15.30;98.20;;;;;;5036648;28;20518;-81
2022/09/25 07:26:27;;;;;;;1.50;1.00;;;15.50;98.20;;;;;;5039688;28;20466;-82
2022/09/25 07:28:56;;;;;;;1.50;1.00;;;15.70;98.20;;;;;;5050039;28;20459;-82
2022/09/25 07:31:25;;;;;;;1.50;1.00;;;16.00;98.20;;;;;;5032741;28;20624;-81
2022/09/25 07:33:53;;;;;;;1.50;1.00;;;16.20;98.20;;;;;;5046717;28;20463;-80
2022/09/25 07:36:22;;;;;;;1.50;1.00;;;16.40;98.20;;;;;;5032420;28;20479;-79
2022/09/25 07:38:50;;;;;;;1.50;0.90;;;16.50;98.20;;;;;;5031700;28;20505;-79
2022/09/25 07:41:18;;;;;;;1.50;1.00;;;16.60;98.20;;;;;;5036374;28;20478;-80
2022/09/25 07:43:46;;;;;;;1.53;1.00;;;16.70;98.20;;;;;;5046174;28;20548;-80
2022/09/25 07:46:13;;;;;;;1.50;0.90;;;16.80;98.20;;;;;;5030097;28;20484;-79
2022/09/25 07:48:40;;;;;;;1.50;1.00;;;16.90;98.20;;;;;;5034146;28;20454;-80
2022/09/25 07:51:10;;;;;;;1.50;0.90;;;16.90;98.20;;;;;;5032451;28;21233;-80
2022/09/25 07:53:40;;;;;;;1.50;0.90;;;16.80;98.20;;;;;;5035411;28;20816;-82
2022/09/25 07:56:08;;;;;;;1.50;0.97;;;16.80;98.20;;;;;;5026018;28;20608;-81
2022/09/25 07:58:40;;;;;;;1.50;0.90;;;16.80;98.20;;;;;;5016379;28;20982;-80
2022/09/25 08:01:10;;;;;;;1.50;0.90;;;16.80;98.20;;;;;;5034531;28;22039;-80
2022/09/25 08:03:38;;;;;;;1.50;0.90;;;16.80;98.20;;;;;;5043786;28;20698;-80
2022/09/25 08:06:10;;;;;;;1.50;0.90;;;16.80;98.20;;;;;;5035629;28;20466;-81
2022/09/25 08:08:42;;;;;;;1.50;1.00;;;16.80;98.20;;;;;;5045723;28;20458;-79
2022/09/25 08:11:14;;;;;;;1.50;0.97;;;16.80;98.20;;;;;;5032570;28;20487;-80
2022/09/25 08:13:44;;;;;;;1.50;0.90;;;16.70;98.20;;;;;;5019841;28;20461;-80
2022/09/25 08:16:16;;;;;;;1.50;0.90;;;16.80;98.20;;;;;;4990522;28;20497;-80
2022/09/25 08:18:45;;;;;;;1.50;0.90;;;16.90;98.20;;;;;;5041351;28;20489;-81
2022/09/25 08:21:14;;;;;;;1.50;0.90;;;17.10;98.20;;;;;;5027623;28;20528;-82
2022/09/25 08:23:44;;;;;;;1.50;0.90;;;17.20;98.20;;;;;;5044192;28;20943;-82
2022/09/25 08:26:12;;;;;;;1.50;0.90;;;17.30;98.20;;;;;;5029017;28;20479;-80
2022/09/25 08:28:40;;;;;;;1.50;0.90;;;17.50;98.20;;;;;;5031651;28;20459;-82
2022/09/25 08:31:09;;;;;;;1.50;0.90;;;17.60;98.20;;;;;;5028801;28;21060;-83
2022/09/25 08:33:39;;;;;;;1.50;0.97;;;17.70;96.90;;;;;;5045234;28;21072;-81
2022/09/25 08:36:09;;;;;;;1.50;1.00;;;17.80;96.90;;;;;;5030965;28;20481;-82
2022/09/25 08:38:39;;;;;;;1.57;1.10;;;17.80;96.30;;;;;;5038387;28;20588;-82
2022/09/25 08:41:14;;;;;;;1.50;0.90;;;17.80;95.50;;;;;;5032847;28;20481;-81
2022/09/25 08:43:45;;;;;;;1.50;0.90;;;17.80;95.40;;;;;;5045047;28;20756;-82
2022/09/25 08:49:20;;;;;;;1.50;0.90;;;17.90;95.50;;;;;;5045590;28;20469;-80
2022/09/25 08:51:51;;;;;;;1.50;0.90;;;17.80;94.40;;;;;;5033776;28;20482;-83
2022/09/25 08:54:23;;;;;;;1.50;0.90;;;17.60;94.70;;;;;;5042879;28;20466;-81
2022/09/25 08:56:54;;;;;;;1.50;0.90;;;17.60;94.90;;;;;;5030309;28;20831;-79
2022/09/25 08:59:27;;;;;;;1.50;0.90;;;17.70;95.90;;;;;;5045116;28;20873;-80
2022/09/25 09:01:59;;;;;;;1.57;1.10;;;17.90;94.20;;;;;;5029390;28;20479;-80
2022/09/25 09:04:31;;;;;;;1.50;0.90;;;18.00;94.10;;;;;;5041581;28;20475;-80
2022/09/25 09:07:04;;;;;;;1.50;0.90;;;18.00;93.80;;;;;;5044930;28;21171;-81
2022/09/25 09:09:38;;;;;;;1.50;0.90;;;17.90;93.20;;;;;;5050606;28;20573;-80
2022/09/25 09:12:13;;;;;;;1.50;0.90;;;18.00;94.40;;;;;;5033502;28;20510;-80
2022/09/25 09:14:45;;;;;;;1.50;0.90;;;18.20;93.40;;;;;;5045292;28;20566;-79
2022/09/25 09:17:18;;;;;;;1.50;0.90;;;18.10;91.20;;;;;;5026682;28;20861;-80
2022/09/25 09:19:50;;;;;;;1.50;0.90;;;17.80;91.00;;;;;;5041803;28;20875;-81
2022/09/25 09:22:23;;;;;;;1.50;0.90;;;17.80;92.70;;;;;;5021286;28;20880;-81
2022/09/25 09:24:58;;;;;;;1.50;0.90;;;18.00;93.20;;;;;;5043207;28;20465;-79
2022/09/25 09:27:44;;;;;;;1.50;0.90;;;18.20;92.10;;;;;;5031769;28;21111;-79
2022/09/25 09:30:17;;;;;;;1.50;0.90;;;18.50;91.30;;;;;;5043434;28;20482;-80
2022/09/25 09:33:07;;;;;;;1.50;1.00;;;18.70;91.10;;;;;;5033842;28;20478;-80
2022/09/25 09:35:46;;;;;;;1.50;0.90;;;19.10;90.60;;;;;;5043405;28;20466;-80
2022/09/25 09:38:25;;;;;;;1.50;0.90;;;19.50;88.40;;;;;;5023837;28;20482;-80
2022/09/25 09:41:12;;;;;;;1.50;0.83;;;19.70;89.30;;;;;;5034018;28;20478;-81
2022/09/25 09:44:00;;;;;;;1.50;0.90;;;19.60;87.40;;;;;;5035466;28;20485;-81
2022/09/25 09:46:39;;;;;;;1.50;0.90;;;19.40;89.40;;;;;;5025154;28;20471;-80
2022/09/25 09:49:16;;;;;;;1.50;0.90;;;19.30;88.90;;;;;;5030659;28;20559;-81
2022/09/25 09:51:49;;;;;;;1.50;0.90;;;19.10;89.00;;;;;;5027119;28;20483;-80
2022/09/25 09:54:22;;;;;;;1.50;0.90;;;19.00;89.30;;;;;;5036799;28;20462;-80
2022/09/25 09:56:52;;;;;;;1.50;0.90;;;19.00;89.40;;;;;;5030503;28;20948;-80
2022/09/25 09:59:26;;;;;;;1.50;0.90;;;19.00;87.40;;;;;;5040615;28;20842;-80
2022/09/25 10:02:02;;;;;;;1.50;0.90;;;18.90;86.00;;;;;;5017225;28;20593;-80
2022/09/25 10:04:35;;;;;;;1.50;0.90;;;19.00;88.00;;;;;;5035660;28;20470;-80
2022/09/25 10:07:09;;;;;;;1.50;0.90;;;19.20;86.60;;;;;;5033336;28;21017;-80
2022/09/25 10:09:37;;;;;;;1.50;0.90;;;19.30;85.80;;;;;;5044180;28;20476;-79
2022/09/25 10:12:24;;;;;;;1.50;0.90;;;19.60;86.80;;;;;;5033567;28;20547;-80
2022/09/25 10:14:53;;;;;;;1.50;0.90;;;19.80;84.90;;;;;;5041552;28;20881;-79
2022/09/25 10:17:23;;;;;;;1.50;0.90;;;19.80;84.10;;;;;;5030733;28;20486;-81
2022/09/25 10:19:55;;;;;;;1.50;0.90;;;19.70;83.30;;;;;;5043578;28;20565;-80
2022/09/25 10:22:26;;;;;;;1.50;0.90;;;19.50;84.80;;;;;;5023055;28;20573;-80
2022/09/25 10:24:57;;;;;;;1.50;0.90;;;19.30;84.20;;;;;;5040596;28;20474;-80
2022/09/25 10:27:31;;;;;;;1.50;0.90;;;19.00;84.70;;;;;;5034213;28;20486;-78
2022/09/25 10:30:13;;;;;;;1.50;1.00;;;18.90;86.50;;;;;;5039720;28;20489;-77
2022/09/25 10:32:45;;;;;;;1.50;0.90;;;19.00;85.80;;;;;;5031642;28;20898;-80
2022/09/25 10:35:19;;;;;;;1.50;0.90;;;19.20;84.50;;;;;;5040514;28;20860;-80
2022/09/25 10:37:51;;;;;;;1.50;0.90;;;19.60;85.20;;;;;;5010388;28;20860;-80
2022/09/25 10:40:26;;;;;;;1.50;0.90;;;20.10;82.70;;;;;;5044851;28;20486;-80
2022/09/25 10:43:22;;;;;;;1.50;0.90;;;20.30;81.00;;;;;;5031919;28;20489;-80
2022/09/25 11:14:56;;;;;;;;;;;;;;;;;;;;;
2022/09/25 11:18:11;;;;;;;1.50;0.90;;;19.90;82.20;;;;;;4906038;28;20505;-80
2022/09/25 11:21:09;;;;;;;1.47;0.90;;;20.10;82.40;;;;;;4955757;28;20983;-80
2022/09/25 11:24:10;;;;;;;1.50;0.90;;;20.50;79.80;;;;;;4939899;28;20999;-79
2022/09/25 11:33:55;;;;;;;1.50;0.90;;;20.70;78.50;;;;;;4883500;29;20488;-79
2022/09/25 11:42:42;;;;;;;1.43;0.87;;;20.10;78.70;;;;;;4951330;28;20963;-80
2022/09/25 11:45:19;;;;;;;1.50;0.90;;;20.20;79.10;;;;;;4963187;28;20953;-80
2022/09/25 11:47:53;;;;;;;1.43;0.90;;;20.40;80.00;;;;;;4945617;28;20502;-81
2022/09/25 11:50:35;;;;;;;1.43;0.90;;;20.40;78.40;;;;;;4964361;28;20492;-81
2022/09/25 11:53:13;;;;;;;1.50;0.90;;;20.30;78.40;;;;;;4952223;28;20584;-80
2022/09/25 11:55:56;;;;;;;1.47;0.90;;;20.20;78.00;;;;;;4961405;28;20469;-79
2022/09/25 11:58:36;;;;;;;1.47;0.90;;;20.00;79.70;;;;;;4938229;28;20481;-80
2022/09/25 12:01:14;;;;;;;1.47;0.90;;;19.80;81.00;;;;;;4952165;28;20493;-79
2022/09/25 12:04:06;;;;;;;1.47;0.90;;;19.70;80.80;;;;;;4956129;28;20481;-80
2022/09/25 12:06:52;;;;;;;1.40;0.90;;;19.70;81.50;;;;;;4955144;28;20498;-79
2022/09/25 12:09:41;;;;;;;1.40;0.90;;;19.90;78.60;;;;;;4964047;28;20548;-80
2022/09/25 12:12:19;;;;;;;1.47;0.90;;;20.20;77.60;;;;;;4952688;28;20509;-79
2022/09/25 12:14:55;;;;;;;1.50;0.90;;;20.50;76.30;;;;;;4966872;28;20561;-80
2022/09/25 12:17:33;;;;;;;1.47;0.90;;;20.70;78.20;;;;;;4952093;28;21365;-80
2022/09/25 12:20:11;;;;;;;1.50;0.90;;;20.90;76.50;;;;;;4969021;28;20510;-79
2022/09/25 12:22:48;;;;;;;1.50;0.90;;;21.10;77.10;;;;;;4954813;28;21070;-79
2022/09/25 12:25:33;;;;;;;1.50;0.90;;;21.30;77.30;;;;;;4969398;28;20548;-80
2022/09/25 12:28:05;;;;;;;1.50;0.90;;;21.70;75.10;;;;;;4959675;28;21025;-79
2022/09/25 12:30:41;;;;;;;1.50;0.90;;;21.80;74.10;;;;;;4971306;28;20494;-80
2022/09/25 12:33:19;;;;;;;1.47;0.90;;;21.80;72.70;;;;;;4954084;28;20484;-78
2022/09/25 12:35:52;;;;;;;1.50;0.90;;;22.00;74.40;;;;;;4970472;28;20465;-79
2022/09/25 12:38:28;;;;;;;1.47;0.90;;;22.10;72.80;;;;;;4941993;28;20490;-79
2022/09/25 12:41:04;;;;;;;1.50;0.90;;;22.20;72.00;;;;;;4959210;28;20568;-79
2022/09/25 12:43:40;;;;;;;1.43;0.90;;;22.20;72.60;;;;;;4964237;28;20520;-79
2022/09/25 12:46:14;;;;;;;1.47;0.90;;;22.20;72.10;;;;;;4959501;28;20457;-78
2022/09/25 12:48:48;;;;;;;1.47;0.90;;;22.20;70.50;;;;;;4966991;28;20826;-79
2022/09/25 12:51:21;;;;;;;1.47;0.90;;;22.30;72.50;;;;;;4958440;28;20684;-79
2022/09/25 12:53:53;;;;;;;1.47;0.90;;;22.40;71.80;;;;;;4965668;28;20458;-79
2022/09/25 12:56:26;;;;;;;1.50;0.90;;;22.50;71.00;;;;;;4962146;28;20476;-78
2022/09/25 12:59:16;;;;;;;1.50;0.90;;;22.50;70.50;;;;;;4961145;28;20726;-79
2022/09/25 13:01:54;;;;;;;1.50;1.00;;;22.40;71.00;;;;;;4958546;28;20490;-80
2022/09/25 13:04:38;;;;;;;1.47;0.90;;;22.30;73.30;;;;;;4966287;28;20457;-80
2022/09/25 13:07:15;;;;;;;1.43;0.90;;;22.20;72.90;;;;;;4958568;28;21069;-80
2022/09/25 13:09:44;;;;;;;1.47;0.90;;;22.20;72.10;;;;;;4965285;28;20485;-80
2022/09/25 13:12:32;;;;;;;1.50;0.90;;;22.30;69.90;;;;;;4962058;28;20477;-80
2022/09/25 13:15:05;;;;;;;1.43;0.80;;;22.40;71.40;;;;;;4970170;28;20473;-80
2022/09/25 13:17:33;;;;;;;1.47;0.90;;;22.60;72.20;;;;;;4959737;28;20478;-80
2022/09/25 13:20:39;;;;;;;1.47;0.90;;;22.80;72.80;;;;;;4968219;28;20592;-79
2022/09/25 13:23:15;;;;;;;1.43;0.83;;;22.90;70.00;;;;;;4949161;28;20491;-79
2022/09/25 13:25:45;;;;;;;1.73;1.37;;;22.90;69.50;;;;;;4968424;28;20552;-79
2022/09/25 13:28:21;;;;;;;1.47;0.90;;;22.90;71.90;;;;;;4958039;28;20481;-80
2022/09/25 13:31:01;;;;;;;1.47;0.90;;;22.90;71.20;;;;;;4963688;28;20880;-79
2022/09/25 13:33:29;;;;;;;1.50;0.90;;;22.90;70.80;;;;;;4962934;28;20982;-78
2022/09/25 13:36:22;;;;;;;1.47;0.90;;;22.90;72.10;;;;;;4960390;28;20462;-80
2022/09/25 13:41:49;;;;;;;1.50;0.80;;;22.80;71.60;;;;;;4954679;28;20842;-79
2022/09/25 13:44:48;;;;;;;1.47;0.90;;;22.80;71.70;;;;;;4961807;28;20545;-79
2022/09/25 13:47:48;;;;;;;1.47;0.90;;;22.70;69.20;;;;;;4952386;28;20486;-80
2022/09/25 13:50:29;;;;;;;1.50;0.90;;;22.60;69.10;;;;;;4961833;28;20514;-80
2022/09/25 13:53:20;;;;;;;1.50;0.90;;;22.60;70.70;;;;;;4958289;28;20905;-79
2022/09/25 13:56:29;;;;;;;1.50;0.90;;;22.60;69.80;;;;;;4966270;28;20466;-80
2022/09/25 13:59:22;;;;;;;1.50;0.90;;;22.80;69.30;;;;;;4942222;28;20485;-79
2022/09/25 14:01:54;;;;;;;1.47;0.90;;;22.80;69.20;;;;;;4951341;28;21003;-79
2022/09/25 14:04:32;;;;;;;1.47;0.90;;;22.70;69.70;;;;;;4969198;28;20466;-78
2022/09/25 14:07:15;;;;;;;1.43;0.90;;;22.70;69.40;;;;;;4953305;28;21009;-79
2022/09/25 14:09:47;;;;;;;1.43;0.90;;;22.50;70.60;;;;;;4968338;28;20513;-79
2022/09/25 14:12:24;;;;;;;1.50;0.90;;;22.30;70.40;;;;;;4958272;28;20490;-80